createdAt,value
2017-02-17T00:00:07.586Z,1014.24
2017-02-17T00:00:48.113Z,1014.24
2017-02-17T00:01:28.620Z,1014.23
2017-02-17T00:02:09.130Z,1014.27
2017-02-17T00:02:49.617Z,1014.25
2017-02-17T00:03:30.112Z,1014.25
2017-02-17T00:04:10.628Z,1014.25
2017-02-17T00:04:51.170Z,1014.23
2017-02-17T00:05:31.715Z,1014.25
2017-02-17T00:06:12.178Z,1014.23
2017-02-17T00:06:52.669Z,1014.22
2017-02-17T00:07:33.171Z,1014.16
2017-02-17T00:08:13.709Z,1014.21
2017-02-17T00:08:54.231Z,1014.17
2017-02-17T00:09:34.756Z,1014.16
2017-02-17T00:10:15.255Z,1014.2
2017-02-17T00:10:55.741Z,1014.13
2017-02-17T00:11:36.243Z,1014.16
2017-02-17T00:12:16.857Z,1014.16
2017-02-17T00:12:57.357Z,1014.2
2017-02-17T00:13:37.865Z,1014.18
2017-02-17T00:14:18.375Z,1014.21
2017-02-17T00:14:58.915Z,1014.16
2017-02-17T00:15:39.403Z,1014.14
2017-02-17T00:16:19.898Z,1014.16
2017-02-17T00:17:00.410Z,1014.15
2017-02-17T00:17:40.927Z,1014.17
2017-02-17T00:18:21.434Z,1014.13
2017-02-17T00:19:01.978Z,1014.16
2017-02-17T00:19:42.448Z,1014.13
2017-02-17T00:20:22.983Z,1014.13
2017-02-17T00:21:03.500Z,1014.1
2017-02-17T00:21:44.017Z,1014.09
2017-02-17T00:22:24.535Z,1014.09
2017-02-17T00:23:05.057Z,1014.09
2017-02-17T00:23:45.544Z,1014.1
2017-02-17T00:24:26.055Z,1014.07
2017-02-17T00:25:06.543Z,1014.09
2017-02-17T00:25:47.071Z,1014.04
2017-02-17T00:26:27.555Z,1014.09
2017-02-17T00:27:08.052Z,1014.08
2017-02-17T00:27:48.563Z,1014.04
2017-02-17T00:28:29.111Z,1014.08
2017-02-17T00:29:09.617Z,1014.06
2017-02-17T00:29:50.118Z,1014
2017-02-17T00:30:30.625Z,1013.98
2017-02-17T00:31:11.149Z,1014
2017-02-17T00:31:51.680Z,1014.03
2017-02-17T00:32:32.212Z,1013.99
2017-02-17T00:33:12.691Z,1013.99
2017-02-17T00:33:53.257Z,1014.03
2017-02-17T00:34:33.754Z,1013.95
2017-02-17T00:35:14.252Z,1013.9
2017-02-17T00:35:54.757Z,1013.92
2017-02-17T00:36:35.269Z,1013.95
2017-02-17T00:37:15.793Z,1013.95
2017-02-17T00:37:56.308Z,1013.97
2017-02-17T00:38:36.846Z,1013.97
2017-02-17T00:39:17.372Z,1013.98
2017-02-17T00:39:57.943Z,1013.99
2017-02-17T00:40:38.422Z,1013.98
2017-02-17T00:41:18.954Z,1014
2017-02-17T00:41:59.454Z,1014.01
2017-02-17T00:42:39.971Z,1014
2017-02-17T00:43:20.469Z,1014
2017-02-17T00:44:00.964Z,1013.98
2017-02-17T00:44:41.487Z,1013.91
2017-02-17T00:45:21.994Z,1013.93
2017-02-17T00:46:02.506Z,1013.95
2017-02-17T00:46:43.009Z,1013.92
2017-02-17T00:47:23.562Z,1013.95
2017-02-17T00:48:03.996Z,1013.98
2017-02-17T00:48:44.475Z,1013.98
2017-02-17T00:49:25.007Z,1013.94
2017-02-17T00:50:05.486Z,1013.95
2017-02-17T00:50:46.043Z,1013.98
2017-02-17T00:51:26.555Z,1013.92
2017-02-17T00:52:07.038Z,1013.92
2017-02-17T00:52:47.551Z,1013.92
2017-02-17T00:53:28.043Z,1013.95
2017-02-17T00:54:08.544Z,1013.9
2017-02-17T00:54:49.045Z,1013.93
2017-02-17T00:55:29.549Z,1013.95
2017-02-17T00:56:10.030Z,1013.92
2017-02-17T00:56:50.560Z,1013.9
2017-02-17T00:57:31.021Z,1013.91
2017-02-17T00:58:11.524Z,1013.85
2017-02-17T00:58:52.019Z,1013.91
2017-02-17T00:59:32.474Z,1013.91
2017-02-17T01:00:12.968Z,1013.88
2017-02-17T01:00:53.460Z,1013.88
2017-02-17T01:01:33.995Z,1013.86
2017-02-17T01:02:14.448Z,1013.91
2017-02-17T01:02:54.972Z,1013.88
2017-02-17T01:03:35.489Z,1013.85
2017-02-17T01:04:15.950Z,1013.87
2017-02-17T01:04:56.434Z,1013.91
2017-02-17T01:05:36.931Z,1013.91
2017-02-17T01:06:17.427Z,1013.92
2017-02-17T01:06:57.942Z,1013.86
2017-02-17T01:07:38.402Z,1013.91
2017-02-17T01:08:18.897Z,1013.89
2017-02-17T01:08:59.425Z,1013.91
2017-02-17T01:09:39.919Z,1013.92
2017-02-17T01:10:20.411Z,1013.93
2017-02-17T01:11:00.940Z,1013.94
2017-02-17T01:11:41.448Z,1013.9
2017-02-17T01:12:21.919Z,1013.97
2017-02-17T01:13:02.421Z,1013.9
2017-02-17T01:13:42.913Z,1013.91
2017-02-17T01:14:23.450Z,1013.91
2017-02-17T01:15:03.955Z,1013.98
2017-02-17T01:15:44.443Z,1013.89
2017-02-17T01:16:24.928Z,1013.92
2017-02-17T01:17:05.470Z,1013.93
2017-02-17T01:17:45.975Z,1013.94
2017-02-17T01:18:26.440Z,1013.92
2017-02-17T01:19:06.945Z,1013.95
2017-02-17T01:19:47.446Z,1013.94
2017-02-17T01:20:27.944Z,1013.94
2017-02-17T01:21:08.432Z,1013.95
2017-02-17T01:21:48.947Z,1013.96
2017-02-17T01:22:29.449Z,1013.94
2017-02-17T01:23:09.952Z,1013.97
2017-02-17T01:23:50.450Z,1013.95
2017-02-17T01:24:30.947Z,1013.96
2017-02-17T01:25:11.438Z,1013.97
2017-02-17T01:25:51.933Z,1013.94
2017-02-17T01:26:32.458Z,1013.96
2017-02-17T01:27:12.960Z,1013.98
2017-02-17T01:27:53.459Z,1013.94
2017-02-17T01:28:33.948Z,1013.95
2017-02-17T01:29:14.495Z,1013.95
2017-02-17T01:29:54.954Z,1013.92
2017-02-17T01:30:35.511Z,1013.92
2017-02-17T01:31:15.979Z,1013.95
2017-02-17T01:31:56.477Z,1013.94
2017-02-17T01:32:36.979Z,1013.89
2017-02-17T01:33:17.551Z,1013.9
2017-02-17T01:33:58.038Z,1013.93
2017-02-17T01:34:38.581Z,1013.93
2017-02-17T01:35:19.367Z,1013.96
2017-02-17T01:35:59.879Z,1013.97
2017-02-17T01:36:40.405Z,1013.9
2017-02-17T01:37:20.875Z,1013.9
2017-02-17T01:38:01.403Z,1013.86
2017-02-17T01:38:41.911Z,1013.89
2017-02-17T01:39:22.410Z,1013.93
2017-02-17T01:40:02.910Z,1013.94
2017-02-17T01:40:43.510Z,1013.89
2017-02-17T01:41:24.029Z,1013.86
2017-02-17T01:42:04.543Z,1013.9
2017-02-17T01:42:45.057Z,1013.85
2017-02-17T01:43:25.550Z,1013.87
2017-02-17T01:44:06.067Z,1013.85
2017-02-17T01:44:46.565Z,1013.9
2017-02-17T01:45:27.068Z,1013.86
2017-02-17T01:46:07.594Z,1013.83
2017-02-17T01:46:48.095Z,1013.81
2017-02-17T01:47:28.602Z,1013.75
2017-02-17T01:48:09.107Z,1013.76
2017-02-17T01:48:49.607Z,1013.76
2017-02-17T01:49:30.112Z,1013.7
2017-02-17T01:50:10.625Z,1013.67
2017-02-17T01:50:51.147Z,1013.68
2017-02-17T01:51:31.627Z,1013.68
2017-02-17T01:52:12.136Z,1013.64
2017-02-17T01:52:52.643Z,1013.62
2017-02-17T01:53:33.157Z,1013.6
2017-02-17T01:54:13.651Z,1013.6
2017-02-17T01:54:54.166Z,1013.6
2017-02-17T01:55:34.649Z,1013.59
2017-02-17T01:56:15.177Z,1013.6
2017-02-17T01:56:55.707Z,1013.61
2017-02-17T01:57:36.199Z,1013.62
2017-02-17T01:58:16.672Z,1013.63
2017-02-17T01:58:57.194Z,1013.58
2017-02-17T01:59:37.703Z,1013.62
2017-02-17T02:00:18.203Z,1013.66
2017-02-17T02:00:58.753Z,1013.62
2017-02-17T02:01:39.250Z,1013.64
2017-02-17T02:02:19.757Z,1013.66
2017-02-17T02:03:00.255Z,1013.69
2017-02-17T02:03:40.776Z,1013.67
2017-02-17T02:04:21.285Z,1013.68
2017-02-17T02:05:01.782Z,1013.7
2017-02-17T02:05:42.306Z,1013.69
2017-02-17T02:06:22.838Z,1013.71
2017-02-17T02:07:03.323Z,1013.72
2017-02-17T02:07:43.832Z,1013.72
2017-02-17T02:08:24.337Z,1013.64
2017-02-17T02:09:04.862Z,1013.66
2017-02-17T02:09:45.400Z,1013.65
2017-02-17T02:10:25.883Z,1013.64
2017-02-17T02:11:06.385Z,1013.56
2017-02-17T02:11:46.888Z,1013.61
2017-02-17T02:12:27.388Z,1013.58
2017-02-17T02:13:07.886Z,1013.55
2017-02-17T02:13:48.416Z,1013.58
2017-02-17T02:14:28.897Z,1013.59
2017-02-17T02:15:09.421Z,1013.56
2017-02-17T02:15:49.955Z,1013.55
2017-02-17T02:16:30.452Z,1013.6
2017-02-17T02:17:10.961Z,1013.58
2017-02-17T02:17:51.458Z,1013.57
2017-02-17T02:18:31.970Z,1013.53
2017-02-17T02:19:12.489Z,1013.49
2017-02-17T02:19:52.956Z,1013.54
2017-02-17T02:20:33.467Z,1013.51
2017-02-17T02:21:13.940Z,1013.54
2017-02-17T02:21:54.461Z,1013.54
2017-02-17T02:22:35.004Z,1013.52
2017-02-17T02:23:15.491Z,1013.48
2017-02-17T02:23:55.993Z,1013.49
2017-02-17T02:24:36.501Z,1013.5
2017-02-17T02:25:17.033Z,1013.48
2017-02-17T02:25:57.520Z,1013.43
2017-02-17T02:26:38.018Z,1013.46
2017-02-17T02:27:18.540Z,1013.42
2017-02-17T02:27:59.045Z,1013.46
2017-02-17T02:28:39.553Z,1013.43
2017-02-17T02:29:20.058Z,1013.46
2017-02-17T02:30:00.560Z,1013.45
2017-02-17T02:30:41.096Z,1013.45
2017-02-17T02:31:21.564Z,1013.46
2017-02-17T02:32:02.061Z,1013.53
2017-02-17T02:32:42.569Z,1013.51
2017-02-17T02:33:23.097Z,1013.49
2017-02-17T02:34:03.620Z,1013.54
2017-02-17T02:34:44.098Z,1013.56
2017-02-17T02:35:24.603Z,1013.57
2017-02-17T02:36:05.114Z,1013.55
2017-02-17T02:36:45.616Z,1013.58
2017-02-17T02:37:26.123Z,1013.58
2017-02-17T02:38:06.614Z,1013.59
2017-02-17T02:38:47.145Z,1013.59
2017-02-17T02:39:27.613Z,1013.58
2017-02-17T02:40:08.123Z,1013.59
2017-02-17T02:40:48.610Z,1013.56
2017-02-17T02:41:29.132Z,1013.56
2017-02-17T02:42:09.644Z,1013.58
2017-02-17T02:42:50.152Z,1013.55
2017-02-17T02:43:30.670Z,1013.54
2017-02-17T02:44:11.824Z,1013.54
2017-02-17T02:44:52.355Z,1013.52
2017-02-17T02:45:32.867Z,1013.61
2017-02-17T02:46:13.459Z,1013.6
2017-02-17T02:46:53.933Z,1013.62
2017-02-17T02:47:34.476Z,1013.64
2017-02-17T02:48:14.978Z,1013.67
2017-02-17T02:48:55.443Z,1013.69
2017-02-17T02:49:35.955Z,1013.69
2017-02-17T02:50:16.478Z,1013.64
2017-02-17T02:50:56.953Z,1013.7
2017-02-17T02:51:37.470Z,1013.65
2017-02-17T02:52:17.952Z,1013.63
2017-02-17T02:52:58.476Z,1013.62
2017-02-17T02:53:38.980Z,1013.62
2017-02-17T02:54:19.488Z,1013.65
2017-02-17T02:55:00.027Z,1013.61
2017-02-17T02:55:40.570Z,1013.6
2017-02-17T02:56:21.049Z,1013.56
2017-02-17T02:57:01.501Z,1013.58
2017-02-17T02:57:42.015Z,1013.56
2017-02-17T02:58:22.504Z,1013.57
2017-02-17T02:59:03.037Z,1013.55
2017-02-17T02:59:43.531Z,1013.55
2017-02-17T03:00:24.041Z,1013.54
2017-02-17T03:01:04.555Z,1013.56
2017-02-17T03:01:45.061Z,1013.53
2017-02-17T03:02:25.584Z,1013.53
2017-02-17T03:03:06.083Z,1013.52
2017-02-17T03:03:46.606Z,1013.5
2017-02-17T03:04:27.130Z,1013.54
2017-02-17T03:05:07.615Z,1013.5
2017-02-17T03:05:48.122Z,1013.5
2017-02-17T03:06:28.630Z,1013.48
2017-02-17T03:07:09.138Z,1013.48
2017-02-17T03:07:49.651Z,1013.46
2017-02-17T03:08:30.149Z,1013.5
2017-02-17T03:09:10.714Z,1013.55
2017-02-17T03:09:51.211Z,1013.5
2017-02-17T03:10:31.666Z,1013.46
2017-02-17T03:11:12.184Z,1013.47
2017-02-17T03:11:52.704Z,1013.5
2017-02-17T03:12:33.211Z,1013.49
2017-02-17T03:13:13.722Z,1013.51
2017-02-17T03:13:54.239Z,1013.52
2017-02-17T03:14:34.786Z,1013.5
2017-02-17T03:15:15.280Z,1013.54
2017-02-17T03:15:55.775Z,1013.54
2017-02-17T03:16:36.310Z,1013.58
2017-02-17T03:17:16.811Z,1013.5
2017-02-17T03:17:57.327Z,1013.5
2017-02-17T03:18:37.829Z,1013.52
2017-02-17T03:19:18.338Z,1013.53
2017-02-17T03:19:58.826Z,1013.57
2017-02-17T03:20:39.416Z,1013.53
2017-02-17T03:21:19.971Z,1013.56
2017-02-17T03:22:00.402Z,1013.56
2017-02-17T03:22:40.907Z,1013.57
2017-02-17T03:23:21.421Z,1013.59
2017-02-17T03:24:01.931Z,1013.66
2017-02-17T03:24:42.439Z,1013.64
2017-02-17T03:25:22.945Z,1013.65
2017-02-17T03:26:03.435Z,1013.67
2017-02-17T03:26:43.928Z,1013.69
2017-02-17T03:27:24.434Z,1013.7
2017-02-17T03:28:04.923Z,1013.69
2017-02-17T03:28:45.590Z,1013.74
2017-02-17T03:29:26.127Z,1013.73
2017-02-17T03:30:06.649Z,1013.72
2017-02-17T03:30:47.168Z,1013.7
2017-02-17T03:31:27.670Z,1013.67
2017-02-17T03:32:08.186Z,1013.68
2017-02-17T03:32:48.684Z,1013.64
2017-02-17T03:33:29.200Z,1013.64
2017-02-17T03:34:09.697Z,1013.63
2017-02-17T03:34:50.213Z,1013.61
2017-02-17T03:35:30.724Z,1013.61
2017-02-17T03:36:11.250Z,1013.54
2017-02-17T03:36:51.769Z,1013.53
2017-02-17T03:37:32.257Z,1013.57
2017-02-17T03:38:12.780Z,1013.55
2017-02-17T03:38:53.268Z,1013.5
2017-02-17T03:39:33.804Z,1013.52
2017-02-17T03:40:14.317Z,1013.51
2017-02-17T03:40:54.800Z,1013.52
2017-02-17T03:41:35.323Z,1013.42
2017-02-17T03:42:15.814Z,1013.45
2017-02-17T03:42:56.355Z,1013.47
2017-02-17T03:43:36.842Z,1013.48
2017-02-17T03:44:17.326Z,1013.53
2017-02-17T03:44:57.841Z,1013.54
2017-02-17T03:45:38.353Z,1013.51
2017-02-17T03:46:18.877Z,1013.56
2017-02-17T03:46:59.357Z,1013.49
2017-02-17T03:47:39.860Z,1013.54
2017-02-17T03:48:20.351Z,1013.52
2017-02-17T03:49:00.848Z,1013.53
2017-02-17T03:49:41.362Z,1013.56
2017-02-17T03:50:21.901Z,1013.55
2017-02-17T03:51:02.393Z,1013.57
2017-02-17T03:51:42.908Z,1013.56
2017-02-17T03:52:23.426Z,1013.56
2017-02-17T03:53:03.930Z,1013.58
2017-02-17T03:53:44.425Z,1013.55
2017-02-17T03:54:24.942Z,1013.61
2017-02-17T03:55:05.495Z,1013.56
2017-02-17T03:55:46.049Z,1013.5
2017-02-17T03:56:26.520Z,1013.58
2017-02-17T03:57:07.025Z,1013.55
2017-02-17T03:57:47.512Z,1013.52
2017-02-17T03:58:28.018Z,1013.56
2017-02-17T03:59:08.534Z,1013.54
2017-02-17T03:59:49.019Z,1013.5
2017-02-17T04:00:29.529Z,1013.54
2017-02-17T04:01:10.100Z,1013.49
2017-02-17T04:01:50.565Z,1013.52
2017-02-17T04:02:31.075Z,1013.55
2017-02-17T04:03:11.585Z,1013.54
2017-02-17T04:03:52.087Z,1013.55
2017-02-17T04:04:32.603Z,1013.48
2017-02-17T04:05:13.121Z,1013.5
2017-02-17T04:05:53.617Z,1013.49
2017-02-17T04:06:34.144Z,1013.52
2017-02-17T04:07:14.655Z,1013.53
2017-02-17T04:07:55.157Z,1013.53
2017-02-17T04:08:35.658Z,1013.54
2017-02-17T04:09:16.298Z,1013.52
2017-02-17T04:09:56.749Z,1013.56
2017-02-17T04:10:37.268Z,1013.54
2017-02-17T04:11:18.354Z,1013.52
2017-02-17T04:11:58.305Z,1013.6
2017-02-17T04:12:38.805Z,1013.57
2017-02-17T04:13:19.306Z,1013.59
2017-02-17T04:13:59.852Z,1013.54
2017-02-17T04:14:40.360Z,1013.56
2017-02-17T04:15:20.839Z,1013.55
2017-02-17T04:16:01.357Z,1013.56
2017-02-17T04:16:41.903Z,1013.58
2017-02-17T04:17:22.321Z,1013.56
2017-02-17T04:18:02.850Z,1013.55
2017-02-17T04:18:43.323Z,1013.53
2017-02-17T04:19:23.810Z,1013.59
2017-02-17T04:20:04.324Z,1013.59
2017-02-17T04:20:44.860Z,1013.6
2017-02-17T04:21:25.331Z,1013.57
2017-02-17T04:22:05.829Z,1013.55
2017-02-17T04:22:46.337Z,1013.56
2017-02-17T04:23:26.861Z,1013.49
2017-02-17T04:24:07.380Z,1013.48
2017-02-17T04:24:47.887Z,1013.47
2017-02-17T04:25:28.369Z,1013.46
2017-02-17T04:26:08.881Z,1013.42
2017-02-17T04:26:49.364Z,1013.42
2017-02-17T04:27:29.923Z,1013.46
2017-02-17T04:28:10.407Z,1013.48
2017-02-17T04:28:51.058Z,1013.49
2017-02-17T04:29:31.543Z,1013.5
2017-02-17T04:30:12.047Z,1013.48
2017-02-17T04:30:52.545Z,1013.48
2017-02-17T04:31:33.066Z,1013.43
2017-02-17T04:32:13.556Z,1013.4
2017-02-17T04:32:54.091Z,1013.4
2017-02-17T04:33:34.541Z,1013.4
2017-02-17T04:34:15.058Z,1013.39
2017-02-17T04:34:55.549Z,1013.41
2017-02-17T04:35:36.052Z,1013.38
2017-02-17T04:36:16.565Z,1013.34
2017-02-17T04:36:57.054Z,1013.37
2017-02-17T04:37:37.574Z,1013.36
2017-02-17T04:38:18.089Z,1013.35
2017-02-17T04:38:58.596Z,1013.31
2017-02-17T04:39:39.081Z,1013.33
2017-02-17T04:40:19.565Z,1013.26
2017-02-17T04:41:00.094Z,1013.28
2017-02-17T04:41:40.613Z,1013.25
2017-02-17T04:42:21.106Z,1013.24
2017-02-17T04:43:01.618Z,1013.12
2017-02-17T04:43:42.127Z,1013.2
2017-02-17T04:44:22.652Z,1013.19
2017-02-17T04:45:03.163Z,1013.19
2017-02-17T04:45:43.675Z,1013.18
2017-02-17T04:46:24.199Z,1013.1
2017-02-17T04:47:04.740Z,1013.06
2017-02-17T04:47:45.227Z,1013.02
2017-02-17T04:48:25.712Z,1013.03
2017-02-17T04:49:06.282Z,1013.02
2017-02-17T04:49:46.847Z,1012.99
2017-02-17T04:50:27.295Z,1012.96
2017-02-17T04:51:07.789Z,1013.04
2017-02-17T04:51:48.293Z,1012.99
2017-02-17T04:52:28.810Z,1012.95
2017-02-17T04:53:09.323Z,1012.96
2017-02-17T04:53:49.832Z,1012.95
2017-02-17T04:54:30.333Z,1012.94
2017-02-17T04:55:10.850Z,1012.94
2017-02-17T04:55:51.402Z,1012.91
2017-02-17T04:56:31.865Z,1013.01
2017-02-17T04:57:12.335Z,1012.96
2017-02-17T04:57:52.856Z,1012.94
2017-02-17T04:58:33.363Z,1012.98
2017-02-17T04:59:13.881Z,1012.98
2017-02-17T04:59:54.398Z,1013
2017-02-17T05:00:34.913Z,1013
2017-02-17T05:01:15.395Z,1013
2017-02-17T05:01:55.896Z,1012.94
2017-02-17T05:02:36.431Z,1012.95
2017-02-17T05:03:16.930Z,1012.93
2017-02-17T05:03:57.434Z,1012.92
2017-02-17T05:04:37.959Z,1012.88
2017-02-17T05:05:18.453Z,1012.89
2017-02-17T05:05:58.996Z,1012.9
2017-02-17T05:06:39.467Z,1012.91
2017-02-17T05:07:19.975Z,1012.94
2017-02-17T05:08:00.496Z,1012.94
2017-02-17T05:08:41.054Z,1012.95
2017-02-17T05:09:21.515Z,1012.92
2017-02-17T05:10:02.020Z,1012.93
2017-02-17T05:10:42.529Z,1012.92
2017-02-17T05:11:23.039Z,1012.95
2017-02-17T05:12:03.536Z,1012.97
2017-02-17T05:12:44.036Z,1012.97
2017-02-17T05:13:24.538Z,1013
2017-02-17T05:14:05.067Z,1013.02
2017-02-17T05:14:45.560Z,1013
2017-02-17T05:15:26.101Z,1012.97
2017-02-17T05:16:06.569Z,1012.99
2017-02-17T05:16:47.059Z,1012.93
2017-02-17T05:17:27.568Z,1012.95
2017-02-17T05:18:08.096Z,1012.93
2017-02-17T05:18:48.580Z,1012.97
2017-02-17T05:19:29.090Z,1012.98
2017-02-17T05:20:09.587Z,1012.98
2017-02-17T05:20:50.108Z,1012.96
2017-02-17T05:21:30.615Z,1012.97
2017-02-17T05:22:11.116Z,1012.98
2017-02-17T05:22:51.612Z,1013
2017-02-17T05:23:32.103Z,1013.03
2017-02-17T05:24:12.602Z,1012.95
2017-02-17T05:24:53.151Z,1012.97
2017-02-17T05:25:33.962Z,1012.99
2017-02-17T05:26:14.229Z,1012.97
2017-02-17T05:26:54.724Z,1012.98
2017-02-17T05:27:35.350Z,1012.99
2017-02-17T05:28:15.814Z,1012.95
2017-02-17T05:28:56.282Z,1012.96
2017-02-17T05:29:36.799Z,1012.97
2017-02-17T05:30:17.410Z,1012.98
2017-02-17T05:30:57.863Z,1012.93
2017-02-17T05:31:38.330Z,1012.96
2017-02-17T05:32:18.865Z,1012.92
2017-02-17T05:32:59.367Z,1012.94
2017-02-17T05:33:39.850Z,1012.9
2017-02-17T05:34:20.358Z,1012.9
2017-02-17T05:35:00.865Z,1012.92
2017-02-17T05:35:41.432Z,1012.84
2017-02-17T05:36:21.884Z,1012.8
2017-02-17T05:37:02.371Z,1012.84
2017-02-17T05:37:42.879Z,1012.83
2017-02-17T05:38:23.386Z,1012.83
2017-02-17T05:39:03.900Z,1012.82
2017-02-17T05:39:44.402Z,1012.76
2017-02-17T05:40:24.915Z,1012.73
2017-02-17T05:41:05.411Z,1012.65
2017-02-17T05:41:45.910Z,1012.67
2017-02-17T05:42:26.406Z,1012.54
2017-02-17T05:43:06.894Z,1012.53
2017-02-17T05:43:47.411Z,1012.53
2017-02-17T05:44:27.915Z,1012.58
2017-02-17T05:45:08.412Z,1012.61
2017-02-17T05:45:48.960Z,1012.59
2017-02-17T05:46:29.625Z,1012.64
2017-02-17T05:47:10.167Z,1012.6
2017-02-17T05:47:50.671Z,1012.54
2017-02-17T05:48:31.167Z,1012.56
2017-02-17T05:49:11.646Z,1012.57
2017-02-17T05:49:52.154Z,1012.64
2017-02-17T05:50:32.626Z,1012.72
2017-02-17T05:51:13.138Z,1012.67
2017-02-17T05:51:53.616Z,1012.68
2017-02-17T05:52:34.183Z,1012.72
2017-02-17T05:53:14.638Z,1012.75
2017-02-17T05:53:55.154Z,1012.76
2017-02-17T05:54:35.657Z,1012.76
2017-02-17T05:55:16.156Z,1012.79
2017-02-17T05:55:56.665Z,1012.75
2017-02-17T05:56:37.173Z,1012.73
2017-02-17T05:57:17.675Z,1012.63
2017-02-17T05:57:58.920Z,1012.6
2017-02-17T05:58:39.457Z,1012.5
2017-02-17T05:59:20.044Z,1012.48
2017-02-17T06:00:00.563Z,1012.42
2017-02-17T06:00:41.039Z,1012.43
2017-02-17T06:01:21.529Z,1012.44
2017-02-17T06:02:02.039Z,1012.46
2017-02-17T06:02:42.564Z,1012.5
2017-02-17T06:03:23.107Z,1012.53
2017-02-17T06:04:03.564Z,1012.55
2017-02-17T06:04:44.044Z,1012.58
2017-02-17T06:05:24.900Z,1012.65
2017-02-17T06:06:05.277Z,1012.68
2017-02-17T06:06:45.747Z,1012.65
2017-02-17T06:07:26.269Z,1012.73
2017-02-17T06:08:06.801Z,1012.79
2017-02-17T06:08:47.287Z,1012.76
2017-02-17T06:09:27.862Z,1012.75
2017-02-17T06:10:08.588Z,1012.82
2017-02-17T06:10:49.071Z,1012.85
2017-02-17T06:11:29.625Z,1012.89
2017-02-17T06:12:10.128Z,1012.86
2017-02-17T06:12:50.715Z,1012.88
2017-02-17T06:13:31.173Z,1012.92
2017-02-17T06:14:11.683Z,1012.99
2017-02-17T06:14:52.758Z,1013.01
2017-02-17T06:15:33.280Z,1013.01
2017-02-17T06:16:14.010Z,1013
2017-02-17T06:16:54.459Z,1013.05
2017-02-17T06:17:34.941Z,1013.05
2017-02-17T06:18:15.430Z,1013.07
2017-02-17T06:18:56.084Z,1013.1
2017-02-17T06:19:36.467Z,1013.14
2017-02-17T06:20:17.054Z,1013.08
2017-02-17T06:20:57.609Z,1013.14
2017-02-17T06:21:38.056Z,1013.12
2017-02-17T06:22:18.562Z,1013.17
2017-02-17T06:22:59.009Z,1013.2
2017-02-17T06:23:42.348Z,1013.14
2017-02-17T06:24:22.402Z,1013.19
2017-02-17T06:25:03.886Z,1013.19
2017-02-17T06:25:44.297Z,1013.21
2017-02-17T06:26:24.926Z,1013.15
2017-02-17T06:27:05.386Z,1013.18
2017-02-17T06:27:45.900Z,1013.21
2017-02-17T06:28:26.432Z,1013.18
2017-02-17T06:29:06.923Z,1013.18
2017-02-17T06:29:47.412Z,1013.19
2017-02-17T06:30:28.025Z,1013.22
2017-02-17T06:31:08.527Z,1013.2
2017-02-17T06:31:49.026Z,1013.24
2017-02-17T06:32:29.509Z,1013.23
2017-02-17T06:33:09.982Z,1013.17
2017-02-17T06:33:50.777Z,1013.16
2017-02-17T06:34:31.360Z,1013.14
2017-02-17T06:35:12.155Z,1013.14
2017-02-17T06:35:52.584Z,1013.08
2017-02-17T06:36:33.102Z,1013.15
2017-02-17T06:37:13.637Z,1013.2
2017-02-17T06:37:54.112Z,1013.25
2017-02-17T06:38:34.893Z,1013.27
2017-02-17T06:39:15.449Z,1013.29
2017-02-17T06:39:55.954Z,1013.26
2017-02-17T06:40:36.514Z,1013.29
2017-02-17T06:41:17.023Z,1013.24
2017-02-17T06:41:57.511Z,1013.26
2017-02-17T06:42:38.125Z,1013.25
2017-02-17T06:43:18.671Z,1013.22
2017-02-17T06:43:59.471Z,1013.24
2017-02-17T06:44:39.953Z,1013.3
2017-02-17T06:45:20.639Z,1013.32
2017-02-17T06:46:01.090Z,1013.35
2017-02-17T06:46:41.575Z,1013.33
2017-02-17T06:47:22.148Z,1013.36
2017-02-17T06:48:02.941Z,1013.36
2017-02-17T06:48:44.327Z,1013.4
2017-02-17T06:49:25.058Z,1013.36
2017-02-17T06:50:06.141Z,1013.4
2017-02-17T06:50:49.031Z,1013.39
2017-02-17T06:54:30.441Z,1013.38
2017-02-17T06:55:11.917Z,1013.44
2017-02-17T06:55:55.182Z,1013.4
2017-02-17T06:56:39.314Z,1013.39
2017-02-17T06:57:21.216Z,1013.37
2017-02-17T06:58:02.277Z,1013.38
2017-02-17T06:58:42.958Z,1013.38
2017-02-17T06:59:23.507Z,1013.41
2017-02-17T07:00:04.180Z,1013.38
2017-02-17T07:00:44.747Z,1013.39
2017-02-17T07:01:26.025Z,1013.5
2017-02-17T07:02:05.788Z,1013.43
2017-02-17T07:02:46.598Z,1013.45
2017-02-17T07:03:27.408Z,1013.43
2017-02-17T07:04:07.886Z,1013.46
2017-02-17T07:04:48.407Z,1013.43
2017-02-17T07:05:28.860Z,1013.43
2017-02-17T07:06:09.814Z,1013.38
2017-02-17T07:06:54.635Z,1013.43
2017-02-17T07:07:35.142Z,1013.44
2017-02-17T07:08:15.689Z,1013.46
2017-02-17T07:08:57.502Z,1013.4
2017-02-17T07:09:41.077Z,1013.37
2017-02-17T07:15:38.722Z,1013.47
2017-02-17T07:16:22.389Z,1013.45
2017-02-17T07:17:02.957Z,1013.51
2017-02-17T07:17:43.509Z,1013.48
2017-02-17T07:18:24.412Z,1013.45
2017-02-17T07:19:05.523Z,1013.44
2017-02-17T07:19:45.987Z,1013.47
2017-02-17T07:20:26.538Z,1013.47
2017-02-17T07:21:07.042Z,1013.52
2017-02-17T07:21:47.944Z,1013.5
2017-02-17T07:22:28.428Z,1013.51
2017-02-17T07:23:08.974Z,1013.46
2017-02-17T07:23:49.387Z,1013.53
2017-02-17T07:24:29.868Z,1013.49
2017-02-17T07:25:12.861Z,1013.53
2017-02-17T07:25:57.047Z,1013.51
2017-02-17T07:26:37.535Z,1013.49
2017-02-17T07:27:18.043Z,1013.44
2017-02-17T07:27:58.568Z,1013.48
2017-02-17T07:28:39.078Z,1013.5
2017-02-17T07:29:19.563Z,1013.49
2017-02-17T07:30:00.099Z,1013.49
2017-02-17T07:30:40.600Z,1013.46
2017-02-17T07:31:21.055Z,1013.49
2017-02-17T07:32:01.569Z,1013.44
2017-02-17T07:32:42.922Z,1013.48
2017-02-17T07:33:25.351Z,1013.48
2017-02-17T07:34:06.973Z,1013.48
2017-02-17T07:34:47.887Z,1013.51
2017-02-17T07:35:28.804Z,1013.51
2017-02-17T07:36:10.970Z,1013.52
2017-02-17T07:36:51.466Z,1013.48
2017-02-17T07:37:31.943Z,1013.53
2017-02-17T07:38:13.966Z,1013.51
2017-02-17T07:38:55.215Z,1013.45
2017-02-17T07:39:36.357Z,1013.49
2017-02-17T07:40:16.567Z,1013.56
2017-02-17T07:40:57.093Z,1013.59
2017-02-17T07:41:37.601Z,1013.54
2017-02-17T07:42:18.128Z,1013.53
2017-02-17T07:42:58.623Z,1013.53
2017-02-17T07:43:39.145Z,1013.55
2017-02-17T07:44:19.600Z,1013.48
2017-02-17T07:45:00.098Z,1013.55
2017-02-17T07:45:40.606Z,1013.5
2017-02-17T07:46:21.101Z,1013.52
2017-02-17T07:47:01.652Z,1013.48
2017-02-17T07:47:42.119Z,1013.5
2017-02-17T07:48:22.604Z,1013.53
2017-02-17T07:49:03.095Z,1013.51
2017-02-17T07:49:43.656Z,1013.5
2017-02-17T07:50:24.250Z,1013.49
2017-02-17T07:51:04.735Z,1013.51
2017-02-17T07:51:45.247Z,1013.47
2017-02-17T07:52:25.757Z,1013.47
2017-02-17T07:53:06.354Z,1013.45
2017-02-17T07:53:46.709Z,1013.48
2017-02-17T07:54:27.512Z,1013.49
2017-02-17T07:55:08.641Z,1013.43
2017-02-17T07:55:49.485Z,1013.42
2017-02-17T07:56:30.166Z,1013.43
2017-02-17T07:57:10.740Z,1013.45
2017-02-17T07:57:51.260Z,1013.44
2017-02-17T07:58:32.007Z,1013.48
2017-02-17T07:59:12.683Z,1013.46
2017-02-17T07:59:53.508Z,1013.5
2017-02-17T08:00:33.919Z,1013.5
2017-02-17T08:01:14.519Z,1013.5
2017-02-17T08:01:55.198Z,1013.46
2017-02-17T08:02:35.710Z,1013.52
2017-02-17T08:03:16.229Z,1013.5
2017-02-17T08:03:56.703Z,1013.56
2017-02-17T08:04:37.239Z,1013.53
2017-02-17T08:05:17.723Z,1013.51
2017-02-17T08:05:58.212Z,1013.56
2017-02-17T08:06:38.701Z,1013.54
2017-02-17T08:07:19.609Z,1013.5
2017-02-17T08:08:00.103Z,1013.55
2017-02-17T08:08:40.639Z,1013.52
2017-02-17T08:09:21.111Z,1013.57
2017-02-17T08:10:01.645Z,1013.58
2017-02-17T08:10:42.113Z,1013.54
2017-02-17T08:11:22.717Z,1013.56
2017-02-17T08:12:03.083Z,1013.53
2017-02-17T08:12:43.644Z,1013.55
2017-02-17T08:13:24.151Z,1013.58
2017-02-17T08:14:04.614Z,1013.56
2017-02-17T08:14:45.166Z,1013.6
2017-02-17T08:15:25.639Z,1013.54
2017-02-17T08:16:06.124Z,1013.6
2017-02-17T08:16:46.638Z,1013.59
2017-02-17T08:17:27.135Z,1013.63
2017-02-17T08:18:07.579Z,1013.59
2017-02-17T08:18:48.113Z,1013.6
2017-02-17T08:19:28.680Z,1013.6
2017-02-17T08:20:09.107Z,1013.64
2017-02-17T08:20:49.593Z,1013.6
2017-02-17T08:21:30.139Z,1013.65